Time;durP1;ratioP1;P1;durP2;ratioP2;P2;SDS_P1;SDS_P2;PMS_P1;PMS_P2;Temp;Humidity;BMP_temperature;BMP_pressure;BME280_temperature;BME280_humidity;BME280_pressure;Samples;Min_cycle;Max_cycle;Signal;HPM_P1;HPM_P2
2022/04/09 00:01:17;;;;;;;12.07;5.38;;;;;;;13.49;100.00;99058.38;5113884;28;20196;-80
2022/04/09 00:03:45;;;;;;;8.60;5.30;;;;;;;13.46;100.00;99055.81;5116975;27;20193;-80
2022/04/09 00:06:12;;;;;;;6.95;5.15;;;;;;;13.20;100.00;99019.69;5115433;27;20793;-79
2022/04/09 00:08:39;;;;;;;5.57;5.03;;;;;;;13.20;100.00;99034.44;5133750;27;20201;-80
2022/04/09 00:11:05;;;;;;;4.95;3.42;;;;;;;13.45;100.00;99037.63;5118033;27;20193;-80
2022/04/09 00:13:32;;;;;;;5.85;2.47;;;;;;;14.05;100.00;99036.72;5124926;27;20208;-80
2022/04/09 00:15:59;;;;;;;5.63;3.90;;;;;;;14.49;100.00;99030.78;5097113;27;20234;-80
2022/04/09 00:18:26;;;;;;;8.52;4.55;;;;;;;14.41;100.00;99021.41;5133658;27;20204;-81
2022/04/09 00:20:55;;;;;;;7.15;4.80;;;;;;;14.27;100.00;99050.25;5133607;27;20201;-80
2022/04/09 00:23:23;;;;;;;7.07;5.53;;;;;;;13.99;100.00;99055.06;5124950;27;20201;-80
2022/04/09 00:25:50;;;;;;;6.90;4.72;;;;;;;13.68;100.00;99012.09;5131512;27;20200;-79
2022/04/09 00:28:17;;;;;;;7.63;4.57;;;;;;;13.89;100.00;99048.25;5113183;28;20614;-79
2022/04/09 00:30:43;;;;;;;10.02;4.68;;;;;;;13.71;100.00;99061.53;5130758;27;20196;-79
2022/04/09 00:33:10;;;;;;;8.65;5.07;;;;;;;13.56;100.00;99033.09;5094724;27;20197;-79
2022/04/09 00:35:37;;;;;;;5.28;4.75;;;;;;;13.60;100.00;99038.25;5110400;28;20232;-79
2022/04/09 00:38:05;;;;;;;8.23;4.80;;;;;;;13.73;100.00;99051.97;5113256;28;20200;-80
2022/04/09 00:40:32;;;;;;;6.63;4.93;;;;;;;13.68;100.00;99064.19;5125024;27;20193;-79
2022/04/09 00:42:59;;;;;;;7.13;5.13;;;;;;;13.69;100.00;99061.59;5126842;27;20200;-78
2022/04/09 00:45:26;;;;;;;4.28;3.88;;;;;;;14.05;100.00;99059.31;5131305;27;20683;-79
2022/04/09 00:47:53;;;;;;;3.28;2.72;;;;;;;14.36;100.00;99057.97;5117456;27;20206;-79
2022/04/09 00:50:20;;;;;;;8.88;4.72;;;;;;;14.22;100.00;99057.31;5112598;28;20281;-79
2022/04/09 00:52:49;;;;;;;7.85;4.68;;;;;;;13.87;100.00;99044.81;5113959;27;20201;-79
2022/04/09 00:55:20;;;;;;;6.82;4.78;;;;;;;13.59;100.00;99036.53;5132980;27;20315;-81
2022/04/09 00:57:48;;;;;;;7.15;5.45;;;;;;;13.51;100.00;99041.00;5132385;27;20702;-79
2022/04/09 01:00:15;;;;;;;6.45;3.05;;;;;;;13.84;100.00;99039.66;5124770;27;20201;-78
2022/04/09 01:02:43;;;;;;;4.13;3.15;;;;;;;14.31;99.87;99028.47;5108651;28;20197;-79
2022/04/09 01:05:11;;;;;;;3.35;2.42;;;;;;;14.82;88.54;99042.38;5117503;27;20204;-80
2022/04/09 01:07:38;;;;;;;3.40;1.80;;;;;;;15.37;80.42;99026.47;5120993;27;20190;-79
2022/04/09 01:10:08;;;;;;;4.88;2.83;;;;;;;16.06;73.17;99052.78;5114688;27;20258;-79
2022/04/09 01:12:38;;;;;;;3.00;2.58;;;;;;;16.08;72.88;99034.47;5124116;27;20202;-80
2022/04/09 01:15:07;;;;;;;2.55;2.35;;;;;;;16.26;70.81;99050.59;5112626;28;20232;-82
2022/04/09 01:17:36;;;;;;;4.20;2.53;;;;;;;16.38;69.58;99065.97;5089855;27;20278;-83
2022/04/09 01:20:15;;;;;;;4.63;3.22;;;;;;;16.30;71.15;99062.66;5119984;27;20192;-83
2022/04/09 01:22:44;;;;;;;9.82;4.47;;;;;;;15.61;79.29;99065.16;5127423;27;20196;-83
2022/04/09 01:25:10;;;;;;;2.90;2.42;;;;;;;15.74;75.42;99045.69;5122983;27;20190;-82
2022/04/09 01:27:38;;;;;;;5.72;2.45;;;;;;;16.15;70.38;99065.66;5096535;27;20201;-81
2022/04/09 01:30:05;;;;;;;7.97;2.28;;;;;;;16.32;69.11;99068.72;5123792;27;20193;-82
2022/04/09 01:32:33;;;;;;;2.30;2.10;;;;;;;16.20;69.52;99066.41;5114825;27;20197;-81
2022/04/09 01:35:00;;;;;;;2.60;2.38;;;;;;;16.15;70.26;99070.91;5119128;27;20235;-82
2022/04/09 01:37:27;;;;;;;4.68;2.47;;;;;;;16.01;71.53;99070.38;5131542;27;20189;-82
2022/04/09 01:39:55;;;;;;;3.13;2.10;;;;;;;15.80;72.98;99079.53;5126620;27;20193;-82
2022/04/09 01:42:22;;;;;;;3.25;2.65;;;;;;;15.69;74.69;99088.53;5121879;27;20199;-82
2022/04/09 01:44:48;;;;;;;7.05;2.72;;;;;;;15.57;76.25;99089.63;5090887;28;20205;-82
2022/04/09 01:47:15;;;;;;;10.00;3.00;;;;;;;15.39;78.07;99089.97;5113640;28;20190;-83
2022/04/09 01:49:42;;;;;;;3.38;3.00;;;;;;;15.20;80.55;99080.78;5128312;27;20193;-84
2022/04/09 01:52:10;;;;;;;5.43;3.00;;;;;;;15.06;82.81;99090.63;5112982;28;20216;-83
2022/04/09 01:54:36;;;;;;;2.58;2.47;;;;;;;14.99;83.97;99076.84;5112139;28;20197;-84
2022/04/09 01:57:05;;;;;;;6.55;3.05;;;;;;;14.98;84.72;99077.75;5111796;28;20233;-83
2022/04/09 01:59:32;;;;;;;4.53;3.00;;;;;;;14.84;85.63;99069.28;5119074;27;20197;-83
2022/04/09 02:01:59;;;;;;;5.32;3.10;;;;;;;14.66;88.38;99069.63;5131026;27;20283;-81
2022/04/09 02:04:26;;;;;;;4.32;3.40;;;;;;;14.62;88.89;99071.44;5113794;27;20205;-84
2022/04/09 02:06:52;;;;;;;4.60;2.78;;;;;;;14.34;90.45;99052.78;5111379;28;20288;-83
2022/04/09 02:09:19;;;;;;;4.47;2.90;;;;;;;14.38;91.44;99067.47;5111799;28;20206;-82
2022/04/09 02:11:46;;;;;;;4.07;3.22;;;;;;;14.45;91.94;99073.44;5111271;28;20224;-82
2022/04/09 02:14:14;;;;;;;3.35;3.00;;;;;;;14.20;92.63;99023.44;5127845;27;20204;-81
2022/04/09 02:16:41;;;;;;;7.28;3.55;;;;;;;14.07;90.90;98980.22;5131408;27;20216;-82
2022/04/09 02:19:10;;;;;;;4.55;2.78;;;;;;;14.52;91.38;99072.47;5132024;27;20220;-82
2022/04/09 02:21:37;;;;;;;3.03;2.60;;;;;;;14.52;91.40;99069.84;5112352;28;20656;-82
2022/04/09 02:24:05;;;;;;;3.17;2.88;;;;;;;14.50;91.12;99055.13;5117192;27;20205;-83
2022/04/09 02:26:31;;;;;;;3.38;3.08;;;;;;;14.54;91.37;99075.94;5110808;28;20197;-82
2022/04/09 02:28:58;;;;;;;6.80;3.35;;;;;;;14.57;91.83;99078.47;5111424;28;20201;-83
2022/04/09 02:31:26;;;;;;;3.47;3.17;;;;;;;14.51;92.88;99080.34;5110976;28;20212;-83
2022/04/09 02:33:54;;;;;;;8.77;3.20;;;;;;;14.22;93.20;99049.47;5117623;28;20194;-81
2022/04/09 02:36:22;;;;;;;4.75;3.53;;;;;;;14.18;93.82;99035.63;5115210;27;20253;-82
2022/04/09 02:38:49;;;;;;;11.82;3.97;;;;;;;13.97;93.32;98978.66;5116229;27;20597;-81
2022/04/09 02:41:16;;;;;;;5.65;3.85;;;;;;;14.50;93.32;99073.38;5108289;27;20206;-85
2022/04/09 02:43:43;;;;;;;8.05;3.90;;;;;;;14.58;93.00;99076.72;5115681;28;20201;-83
2022/04/09 02:46:10;;;;;;;5.25;3.92;;;;;;;14.83;89.37;99078.03;5079219;27;20669;-82
2022/04/09 02:48:41;;;;;;;6.03;3.97;;;;;;;14.88;89.44;99077.03;5115136;27;20190;-82
2022/04/09 02:51:08;;;;;;;5.25;3.83;;;;;;;14.81;89.08;99069.34;5115062;28;20193;-82
2022/04/09 02:53:35;;;;;;;6.07;3.50;;;;;;;14.83;88.90;99070.19;5128460;27;20257;-81
2022/04/09 02:56:02;;;;;;;7.25;4.10;;;;;;;14.76;88.83;99066.84;5135788;27;20231;-83
2022/04/09 02:58:28;;;;;;;4.22;3.60;;;;;;;14.99;87.45;99075.97;5134934;27;20712;-81
2022/04/09 03:00:55;;;;;;;6.65;3.67;;;;;;;15.09;86.38;99070.53;5114763;28;20564;-81
2022/04/09 03:03:22;;;;;;;5.90;3.42;;;;;;;15.20;83.84;99079.03;5118804;27;20801;-81
2022/04/09 03:05:50;;;;;;;6.50;3.90;;;;;;;15.27;83.47;99082.38;5114635;27;20205;-83
2022/04/09 03:08:17;;;;;;;6.53;3.72;;;;;;;15.03;84.90;99081.09;5114549;27;20225;-80
2022/04/09 03:10:44;;;;;;;6.53;3.92;;;;;;;15.04;85.19;99067.19;5114477;28;20193;-80
2022/04/09 03:13:11;;;;;;;3.22;3.00;;;;;;;15.09;84.84;99080.97;5120219;27;20208;-81
2022/04/09 03:15:38;;;;;;;9.52;3.53;;;;;;;15.10;84.41;99085.31;5135031;27;20232;-80
2022/04/09 03:18:05;;;;;;;4.03;2.78;;;;;;;15.04;85.35;99087.19;5134760;27;20193;-80
2022/04/09 03:20:31;;;;;;;3.90;3.13;;;;;;;14.87;85.57;99071.84;5125809;27;20200;-80
2022/04/09 03:23:00;;;;;;;3.92;3.38;;;;;;;15.00;85.23;99075.94;5117754;27;20526;-80
2022/04/09 03:25:26;;;;;;;4.25;3.53;;;;;;;14.79;84.64;99019.81;5134998;27;20204;-81
2022/04/09 03:27:53;;;;;;;3.28;2.90;;;;;;;15.06;83.55;99086.28;5134441;27;20196;-80
2022/04/09 03:30:20;;;;;;;4.65;2.97;;;;;;;15.31;81.33;99092.72;5134916;27;20193;-78
2022/04/09 03:32:47;;;;;;;3.33;3.00;;;;;;;15.45;78.96;99084.63;5130088;27;20205;-80
2022/04/09 03:35:14;;;;;;;5.88;3.67;;;;;;;15.43;79.00;99090.78;5126069;27;20229;-80
2022/04/09 03:37:41;;;;;;;13.20;4.85;;;;;;;15.12;81.56;99064.41;5097948;27;20581;-81
2022/04/09 03:40:12;;;;;;;3.50;3.20;;;;;;;15.33;81.01;99084.88;5124851;27;20201;-79
2022/04/09 03:42:38;;;;;;;4.45;3.83;;;;;;;15.27;80.70;99075.41;5122988;27;20257;-80
2022/04/09 03:45:06;;;;;;;7.78;4.05;;;;;;;15.11;82.67;99060.94;5133855;27;20201;-81
2022/04/09 03:47:33;;;;;;;3.58;3.28;;;;;;;14.93;83.69;99056.06;5124378;27;20209;-80
2022/04/09 03:50:01;;;;;;;4.82;3.40;;;;;;;15.11;83.57;99079.22;5125534;27;20181;-81
2022/04/09 03:52:28;;;;;;;4.95;3.88;;;;;;;15.02;83.62;99079.38;5093713;27;20258;-81
2022/04/09 03:54:54;;;;;;;3.97;3.42;;;;;;;14.89;86.69;99072.69;5125962;27;20193;-80
2022/04/09 03:57:23;;;;;;;7.15;4.50;;;;;;;15.03;85.45;99072.41;5087341;27;20236;-80
2022/04/09 03:59:52;;;;;;;8.43;4.40;;;;;;;14.98;84.90;99082.09;5127286;27;20201;-82
2022/04/09 04:02:18;;;;;;;8.40;4.03;;;;;;;14.67;87.15;99055.69;5097147;27;20197;-81
2022/04/09 04:04:45;;;;;;;6.60;3.80;;;;;;;14.63;88.42;99049.66;5092697;28;20212;-80
2022/04/09 04:07:13;;;;;;;6.82;4.15;;;;;;;14.61;91.80;99059.28;5131234;27;20189;-80
2022/04/09 04:09:39;;;;;;;11.25;5.32;;;;;;;14.71;96.23;99075.63;5134820;27;20208;-80
2022/04/09 04:12:07;;;;;;;12.82;4.78;;;;;;;14.69;97.68;99059.16;5134604;27;20204;-78
2022/04/09 04:14:35;;;;;;;6.57;4.55;;;;;;;14.82;98.97;99055.41;5095471;27;20659;-80
2022/04/09 04:17:02;;;;;;;4.45;3.92;;;;;;;15.11;97.77;99062.69;5130568;27;20225;-81
2022/04/09 04:19:29;;;;;;;5.55;4.43;;;;;;;15.39;95.27;99033.38;5113842;27;20205;-82
2022/04/09 04:21:55;;;;;;;12.23;4.22;;;;;;;16.31;89.14;99066.13;5127192;27;20197;-81
2022/04/09 04:24:23;;;;;;;7.53;4.43;;;;;;;17.25;81.69;99063.69;5093550;28;20263;-80
2022/04/09 04:26:50;;;;;;;7.15;4.00;;;;;;;18.07;74.42;99069.09;5127119;27;20232;-80
2022/04/09 04:29:17;;;;;;;7.43;4.00;;;;;;;18.37;69.60;99075.16;5127662;27;20685;-78
2022/04/09 04:31:45;;;;;;;6.22;4.20;;;;;;;19.16;67.70;99078.56;5121904;27;20617;-80
2022/04/09 04:34:12;;;;;;;6.22;4.65;;;;;;;19.60;67.16;99083.09;5118261;27;20202;-79
2022/04/09 04:36:38;;;;;;;5.15;4.05;;;;;;;19.82;63.89;99091.03;5088680;27;20216;-80
2022/04/09 04:39:05;;;;;;;6.90;4.45;;;;;;;19.79;60.75;99088.53;5129066;27;20628;-78
2022/04/09 04:41:32;;;;;;;9.65;6.32;;;;;;;20.31;73.33;99075.97;5133579;27;20197;-80
2022/04/09 04:43:59;;;;;;;11.85;5.63;;;;;;;20.31;59.50;99082.09;5124864;27;20657;-78
2022/04/09 04:46:26;;;;;;;6.53;4.30;;;;;;;20.32;58.80;99082.94;5133226;27;20196;-79
2022/04/09 04:48:54;;;;;;;5.32;4.32;;;;;;;20.32;57.33;99089.06;5133205;27;20200;-78
2022/04/09 04:51:21;;;;;;;8.52;4.65;;;;;;;20.40;56.79;99063.28;5133075;27;20718;-77
2022/04/09 04:53:48;;;;;;;8.40;4.70;;;;;;;20.23;57.05;99048.13;5117527;27;20216;-78
2022/04/09 04:56:14;;;;;;;8.75;5.32;;;;;;;20.86;56.17;99070.13;5112368;28;20693;-77
2022/04/09 04:58:41;;;;;;;11.15;5.75;;;;;;;21.24;56.15;99052.66;5116511;27;20560;-78
2022/04/09 05:01:08;;;;;;;14.32;5.20;;;;;;;22.01;53.70;99049.06;5126490;27;20657;-77
2022/04/09 05:03:37;;;;;;;7.20;5.60;;;;;;;22.54;50.99;99069.38;5131051;27;20216;-81
2022/04/09 05:06:05;;;;;;;8.35;6.25;;;;;;;22.98;50.36;99075.06;5119401;27;20197;-80
2022/04/09 05:08:32;;;;;;;9.25;6.03;;;;;;;22.73;50.50;99059.59;5121726;27;20649;-79
2022/04/09 05:10:59;;;;;;;9.95;5.88;;;;;;;23.09;50.82;99075.38;5112376;28;20665;-82
2022/04/09 05:13:26;;;;;;;10.15;5.47;;;;;;;22.92;52.78;99070.97;5118881;27;20241;-78
2022/04/09 05:15:53;;;;;;;12.68;6.13;;;;;;;23.44;51.25;99073.53;5131838;27;20216;-79
2022/04/09 05:18:19;;;;;;;9.00;6.20;;;;;;;23.25;50.33;99067.50;5126355;27;20213;-78
2022/04/09 05:20:46;;;;;;;8.32;6.13;;;;;;;23.35;51.28;99079.28;5124554;27;20201;-76
2022/04/09 05:23:14;;;;;;;6.65;5.40;;;;;;;23.33;50.71;99083.84;5111620;28;20198;-77
2022/04/09 05:25:41;;;;;;;13.75;5.75;;;;;;;23.22;50.72;99084.41;5111353;28;20569;-79
2022/04/09 05:28:09;;;;;;;13.13;5.88;;;;;;;22.92;60.49;99063.03;5122892;27;20197;-81
2022/04/09 05:30:36;;;;;;;11.57;5.10;;;;;;;22.59;52.49;99068.19;5126040;27;20288;-78
2022/04/09 05:33:03;;;;;;;14.60;5.68;;;;;;;21.89;54.82;99080.44;5130263;27;20215;-80
2022/04/09 05:35:30;;;;;;;12.35;5.95;;;;;;;21.10;56.68;99074.34;5120642;27;20230;-79
2022/04/09 05:37:57;;;;;;;10.95;5.47;;;;;;;20.13;58.33;99075.75;5110788;28;20223;-79
2022/04/09 05:40:25;;;;;;;7.68;5.30;;;;;;;19.75;60.34;99072.00;5119482;27;20250;-79
2022/04/09 05:42:52;;;;;;;11.88;5.65;;;;;;;19.20;64.73;99064.41;5127662;27;20197;-80
2022/04/09 05:45:18;;;;;;;8.00;4.88;;;;;;;18.69;64.71;99048.72;5124934;27;20197;-80
2022/04/09 05:47:46;;;;;;;8.15;5.20;;;;;;;18.46;70.16;99052.06;5114118;27;20201;-77
2022/04/09 05:50:14;;;;;;;45.90;25.55;;;;;;;18.39;86.43;99045.31;5112391;27;20217;-77
2022/04/09 05:52:41;;;;;;;12.55;7.15;;;;;;;18.36;78.42;99039.31;5128443;27;20208;-80
2022/04/09 05:55:09;;;;;;;5.88;4.38;;;;;;;18.43;70.05;99040.81;5128648;27;20308;-80
2022/04/09 05:57:37;;;;;;;5.18;2.60;;;;;;;18.70;61.72;99047.78;5125190;27;20728;-78
2022/04/09 06:00:05;;;;;;;10.77;7.03;;;;;;;19.01;68.24;99043.19;5112244;28;20769;-79
2022/04/09 06:02:35;;;;;;;6.05;2.55;;;;;;;18.91;61.13;99015.50;5056123;28;20204;-78
2022/04/09 06:05:02;;;;;;;7.82;3.53;;;;;;;19.12;64.74;99048.06;5112437;28;20661;-79
2022/04/09 06:07:30;;;;;;;7.40;2.03;;;;;;;19.47;55.90;99049.44;5112461;28;20206;-75
2022/04/09 06:09:57;;;;;;;2.50;1.90;;;;;;;19.77;54.83;99042.97;5124256;27;20201;-79
2022/04/09 06:12:24;;;;;;;5.07;3.53;;;;;;;19.67;59.23;99020.59;5121610;27;20200;-80
2022/04/09 06:14:52;;;;;;;5.72;3.13;;;;;;;19.50;59.88;99033.53;5132505;27;20257;-80
2022/04/09 06:17:19;;;;;;;4.28;2.10;;;;;;;19.81;54.74;99023.53;5114599;27;20278;-78
2022/04/09 06:19:47;;;;;;;7.50;2.50;;;;;;;20.02;53.21;99032.34;5115028;28;20193;-79
2022/04/09 06:22:14;;;;;;;4.45;2.22;;;;;;;20.35;52.34;99035.44;5112828;28;20284;-81
2022/04/09 06:24:40;;;;;;;2.83;1.67;;;;;;;20.43;52.04;99030.72;5121393;27;20218;-81
2022/04/09 06:27:07;;;;;;;10.05;6.55;;;;;;;20.42;52.00;99031.63;5091921;28;20205;-80
2022/04/09 06:29:34;;;;;;;3.40;2.60;;;;;;;20.50;51.22;99040.06;5074789;28;20756;-77
2022/04/09 06:32:02;;;;;;;2.28;1.75;;;;;;;20.35;51.28;99009.09;5110786;28;20189;-78
2022/04/09 06:34:29;;;;;;;5.75;2.20;;;;;;;20.78;50.94;99051.16;5084539;28;20193;-79
2022/04/09 06:36:56;;;;;;;7.40;1.80;;;;;;;20.79;50.94;99044.97;5110579;28;20228;-80
2022/04/09 06:39:23;;;;;;;2.05;1.75;;;;;;;20.84;49.86;99048.22;5075220;28;20204;-80
2022/04/09 06:41:50;;;;;;;1.80;1.70;;;;;;;20.64;50.06;99053.50;5111281;28;20657;-79
2022/04/09 06:44:17;;;;;;;2.17;1.73;;;;;;;20.84;50.19;99061.41;5112309;28;20201;-78
2022/04/09 06:46:46;;;;;;;1.73;1.50;;;;;;;20.86;49.74;99053.44;5099865;28;20204;-78
2022/04/09 06:49:14;;;;;;;9.02;2.10;;;;;;;20.90;50.12;99040.09;5110900;28;20300;-76
2022/04/09 06:51:41;;;;;;;1.73;1.63;;;;;;;20.89;50.22;99058.59;5110978;28;20193;-77
2022/04/09 06:54:09;;;;;;;3.03;2.58;;;;;;;20.81;50.21;99061.53;5085704;28;20204;-76
2022/04/09 06:56:36;;;;;;;8.25;2.25;;;;;;;20.65;51.03;99045.53;5113695;28;20273;-78
2022/04/09 06:59:04;;;;;;;5.47;1.92;;;;;;;20.83;50.29;99046.53;5131352;27;20200;-78
2022/04/09 07:01:30;;;;;;;4.57;2.60;;;;;;;20.62;50.94;99021.94;5131455;27;20200;-78
2022/04/09 07:03:57;;;;;;;3.53;1.63;;;;;;;20.79;51.29;99039.69;5131071;27;20203;-78
2022/04/09 07:06:25;;;;;;;10.80;4.97;;;;;;;20.86;50.61;99037.63;5131672;27;20209;-81
2022/04/09 07:08:52;;;;;;;3.95;2.08;;;;;;;20.93;50.82;99058.41;5115629;27;20661;-80
2022/04/09 07:11:19;;;;;;;3.88;1.90;;;;;;;20.83;50.38;99053.59;5110937;28;20201;-79
2022/04/09 07:13:46;;;;;;;2.85;1.83;;;;;;;21.17;50.52;99059.13;5122374;28;20859;-83
2022/04/09 07:16:13;;;;;;;2.60;2.22;;;;;;;21.16;50.27;99055.63;5111154;28;20216;-80
2022/04/09 07:18:39;;;;;;;2.22;1.95;;;;;;;21.38;49.83;99047.59;5075089;28;20224;-78
2022/04/09 07:21:06;;;;;;;4.88;1.85;;;;;;;21.60;49.83;99058.91;5096030;27;20193;-77
2022/04/09 07:23:34;;;;;;;1.38;1.30;;;;;;;21.64;48.76;99056.97;5134935;27;20212;-76
2022/04/09 07:26:01;;;;;;;2.78;1.60;;;;;;;21.62;48.33;99058.81;5135144;27;20288;-78
2022/04/09 07:28:28;;;;;;;2.10;1.55;;;;;;;21.56;48.50;99056.47;5126492;27;20205;-78
2022/04/09 07:30:55;;;;;;;2.25;2.05;;;;;;;21.25;49.54;99036.78;5129878;27;20219;-76
2022/04/09 07:33:22;;;;;;;1.40;1.20;;;;;;;21.18;49.31;99035.34;5133385;27;20204;-77
2022/04/09 07:35:49;;;;;;;5.55;1.67;;;;;;;21.44;49.15;99046.50;5134669;27;20204;-78
2022/04/09 07:38:16;;;;;;;6.05;2.53;;;;;;;21.50;49.29;99044.44;5118132;27;20219;-79
2022/04/09 07:40:44;;;;;;;6.18;1.65;;;;;;;21.27;49.95;99021.72;5114026;28;20193;-76
2022/04/09 07:43:11;;;;;;;3.30;1.70;;;;;;;21.37;50.31;99021.31;5113986;28;20205;-76
2022/04/09 07:45:38;;;;;;;3.60;2.03;;;;;;;21.63;49.51;99044.69;5114107;28;20201;-78
2022/04/09 07:48:06;;;;;;;2.92;1.98;;;;;;;21.88;48.98;99036.50;5113854;28;20813;-79
2022/04/09 07:50:34;;;;;;;2.70;1.55;;;;;;;21.76;49.08;99025.59;5125587;27;20207;-77
2022/04/09 07:53:01;;;;;;;2.97;1.73;;;;;;;21.99;48.32;99035.09;5134327;27;20196;-79
2022/04/09 07:55:28;;;;;;;1.65;1.40;;;;;;;21.63;48.67;99029.72;5134486;27;20200;-79
2022/04/09 07:57:56;;;;;;;3.55;1.48;;;;;;;22.05;48.71;99040.06;5132610;27;20227;-81
2022/04/09 08:00:24;;;;;;;5.45;2.08;;;;;;;22.27;48.19;99036.38;5131814;27;20637;-82
2022/04/09 08:02:51;;;;;;;3.05;1.92;;;;;;;22.59;48.20;99030.34;5123738;27;20221;-80
2022/04/09 08:05:18;;;;;;;5.35;1.85;;;;;;;22.83;45.95;99029.13;5120259;27;20214;-80
2022/04/09 08:07:46;;;;;;;3.97;2.00;;;;;;;22.68;45.44;99020.22;5116908;27;20192;-79
2022/04/09 08:10:13;;;;;;;2.45;1.60;;;;;;;22.49;45.36;99031.75;5133588;27;20269;-80
2022/04/09 08:12:41;;;;;;;4.35;1.70;;;;;;;22.15;47.04;98977.13;5119998;27;20201;-80
2022/04/09 08:15:10;;;;;;;2.47;1.30;;;;;;;22.76;45.83;99027.72;5127512;22;20276;-78
2022/04/09 08:17:38;;;;;;;3.50;1.65;;;;;;;22.76;45.23;99017.16;5071037;28;20276;-77
2022/04/09 08:20:06;;;;;;;4.75;1.80;;;;;;;22.90;46.84;99014.66;5073178;28;20199;-85
2022/04/09 08:22:33;;;;;;;4.22;1.90;;;;;;;22.92;43.88;99001.38;5070139;28;20206;-83
2022/04/09 08:25:01;;;;;;;5.20;1.70;;;;;;;23.16;44.14;99011.50;5073620;28;20256;-80
2022/04/09 08:27:28;;;;;;;5.45;1.65;;;;;;;23.13;44.27;98964.06;5073128;28;20203;-78
2022/04/09 08:29:55;;;;;;;4.85;1.52;;;;;;;23.58;43.32;99007.53;5072881;28;20203;-77
2022/04/09 08:32:25;;;;;;;2.67;1.10;;;;;;;23.33;42.88;98970.06;5067962;28;20191;-80
2022/04/09 08:34:53;;;;;;;4.15;1.40;;;;;;;23.30;42.67;99007.25;5073001;28;20236;-79
2022/04/09 08:37:21;;;;;;;4.05;1.60;;;;;;;23.09;44.09;98935.22;5074014;28;20289;-81
2022/04/09 08:39:48;;;;;;;5.40;1.55;;;;;;;23.44;43.00;98994.16;5039305;28;20195;-83
2022/04/09 08:42:15;;;;;;;2.45;1.30;;;;;;;23.65;42.21;98998.31;5072204;28;20203;-82
2022/04/09 08:44:42;;;;;;;4.22;1.92;;;;;;;23.52;43.15;99000.75;5072834;28;20211;-84
2022/04/09 08:47:12;;;;;;;4.18;1.73;;;;;;;23.79;42.09;98995.75;5066378;28;20213;-84
2022/04/09 08:49:46;;;;;;;1.88;1.30;;;;;;;24.16;41.49;98995.38;5072286;28;20284;-78
2022/04/09 08:52:13;;;;;;;1.70;1.60;;;;;;;24.40;41.20;98998.38;5052288;28;20242;-79
2022/04/09 08:54:41;;;;;;;4.95;2.03;;;;;;;24.60;41.66;99000.72;5052879;28;20218;-82
2022/04/09 08:57:09;;;;;;;2.30;1.30;;;;;;;24.55;41.70;98996.63;5017511;28;20219;-78
2022/04/09 08:59:36;;;;;;;1.65;1.35;;;;;;;24.67;39.87;98990.59;5052545;28;20347;-78
2022/04/09 09:02:03;;;;;;;6.57;2.50;;;;;;;24.67;40.57;98999.41;5059999;28;20211;-78
2022/04/09 09:04:30;;;;;;;3.35;2.17;;;;;;;24.78;40.08;98985.53;5033153;28;20289;-77
2022/04/09 09:07:17;;;;;;;2.60;2.10;;;;;;;25.04;39.67;98984.81;5060357;28;20206;-82
2022/04/09 09:09:43;;;;;;;6.90;2.58;;;;;;;24.66;39.75;98991.53;5074266;28;20285;-78
2022/04/09 09:12:12;;;;;;;2.45;1.92;;;;;;;24.44;39.23;98993.75;5071445;28;20207;-79
2022/04/09 09:14:45;;;;;;;1.60;1.50;;;;;;;24.62;39.16;98980.28;5051904;28;20206;-77
2022/04/09 09:17:12;;;;;;;3.22;1.30;;;;;;;25.03;38.71;98975.16;5070798;28;20330;-79
2022/04/09 09:19:43;;;;;;;4.95;2.65;;;;;;;25.12;38.77;98984.31;5069985;28;20194;-77
2022/04/09 09:22:11;;;;;;;2.92;1.60;;;;;;;24.92;38.85;98985.56;5069704;28;20210;-76
2022/04/09 09:24:39;;;;;;;2.58;1.83;;;;;;;24.60;39.11;98984.81;5070665;28;20202;-80
2022/04/09 09:27:07;;;;;;;3.58;1.63;;;;;;;24.77;38.84;98970.56;5051993;28;20209;-79
2022/04/09 09:29:36;;;;;;;5.10;1.67;;;;;;;25.00;39.11;98929.41;5070989;28;20203;-78
2022/04/09 09:32:05;;;;;;;3.90;1.90;;;;;;;25.15;39.18;98955.81;5071745;28;20201;-77
2022/04/09 09:34:32;;;;;;;2.20;1.50;;;;;;;25.62;38.94;98967.91;5071210;28;20194;-77
2022/04/09 09:36:59;;;;;;;4.60;1.70;;;;;;;25.63;37.00;98957.22;5071346;28;20198;-79
2022/04/09 09:39:28;;;;;;;2.97;1.67;;;;;;;25.49;37.66;98959.00;5070479;28;20203;-77
2022/04/09 09:41:58;;;;;;;3.58;1.48;;;;;;;25.67;37.66;98973.78;5020330;28;20199;-77
2022/04/09 09:44:25;;;;;;;3.90;1.60;;;;;;;26.10;36.61;98962.06;5070558;28;20206;-77
2022/04/09 09:46:53;;;;;;;2.38;1.30;;;;;;;25.85;36.72;98948.69;5071310;28;20211;-79
2022/04/09 09:49:24;;;;;;;3.22;1.63;;;;;;;25.99;36.98;98964.59;5070942;28;20287;-77
2022/04/09 09:52:04;;;;;;;6.47;1.70;;;;;;;26.23;36.38;98953.31;5071002;28;20198;-78
2022/04/09 09:54:32;;;;;;;2.97;1.42;;;;;;;26.08;36.19;98961.31;5070939;28;20194;-80
2022/04/09 09:57:00;;;;;;;1.63;1.50;;;;;;;25.93;35.68;98903.91;5071424;28;20199;-78
2022/04/09 09:59:28;;;;;;;2.55;1.30;;;;;;;25.67;36.59;98955.22;5067309;28;20274;-79
2022/04/09 10:01:56;;;;;;;2.33;1.55;;;;;;;25.97;36.57;98925.81;5069704;28;20818;-79
2022/04/09 10:04:23;;;;;;;6.68;1.50;;;;;;;26.47;36.01;98933.06;5069287;28;20203;-78
2022/04/09 10:06:51;;;;;;;2.28;1.90;;;;;;;26.38;36.19;98941.66;5062442;28;20282;-78
2022/04/09 10:09:19;;;;;;;3.28;1.73;;;;;;;26.54;37.06;98937.84;5050277;28;20191;-78
2022/04/09 10:11:51;;;;;;;2.97;1.30;;;;;;;26.39;35.72;98940.69;5061292;28;20205;-78
2022/04/09 10:14:22;;;;;;;2.10;1.40;;;;;;;26.46;36.58;98910.09;5069360;28;20621;-78
2022/04/09 10:16:51;;;;;;;1.58;1.45;;;;;;;26.19;37.26;98911.94;5068982;28;20245;-79
2022/04/09 10:19:20;;;;;;;1.73;1.30;;;;;;;26.04;37.18;98930.56;5069709;28;20313;-78
2022/04/09 10:21:50;;;;;;;3.58;1.63;;;;;;;26.05;36.63;98920.81;5070500;28;20286;-75
2022/04/09 10:24:20;;;;;;;2.60;1.50;;;;;;;25.78;37.25;98917.31;5050901;28;20191;-76
2022/04/09 10:26:48;;;;;;;2.60;1.77;;;;;;;25.82;37.61;98917.03;5050847;28;20795;-76
2022/04/09 10:29:15;;;;;;;2.63;1.52;;;;;;;26.13;37.15;98923.81;5050714;28;20207;-77
2022/04/09 10:31:43;;;;;;;2.33;1.17;;;;;;;26.22;36.79;98901.13;5053217;28;20198;-76
2022/04/09 10:34:11;;;;;;;2.67;1.33;;;;;;;26.72;35.95;98895.00;5070670;28;20206;-77
2022/04/09 10:37:03;;;;;;;1.85;1.20;;;;;;;25.87;36.71;98906.94;5070535;28;20260;-78
2022/04/09 10:39:38;;;;;;;2.72;1.60;;;;;;;25.70;37.46;98911.66;4988995;28;20260;-78
2022/04/09 10:42:07;;;;;;;2.03;1.55;;;;;;;25.99;36.65;98911.47;4988704;28;20205;-78
2022/04/09 10:44:36;;;;;;;2.60;1.50;;;;;;;26.17;36.45;98908.50;4972310;28;20209;-78
2022/04/09 10:47:03;;;;;;;9.18;5.57;;;;;;;26.52;37.05;98915.81;4989328;28;20205;-75
2022/04/09 10:49:31;;;;;;;6.35;3.28;;;;;;;26.25;36.83;98912.41;4940581;28;20209;-78
2022/04/09 10:52:07;;;;;;;4.65;1.55;;;;;;;25.87;38.00;98883.03;4988304;28;20197;-78
2022/04/09 10:54:34;;;;;;;3.13;1.65;;;;;;;26.05;38.50;98888.94;4987137;28;20201;-78
2022/04/09 10:57:09;;;;;;;2.53;1.33;;;;;;;25.56;38.06;98817.84;4990083;28;20205;-79
2022/04/09 10:59:38;;;;;;;4.45;1.30;;;;;;;25.72;37.55;98889.34;4943455;28;20217;-80
2022/04/09 11:02:06;;;;;;;5.05;1.60;;;;;;;25.83;37.42;98891.31;4992037;28;20303;-78
2022/04/09 11:04:43;;;;;;;1.65;1.35;;;;;;;26.12;36.79;98907.00;4992877;28;20260;-79
2022/04/09 11:07:12;;;;;;;2.03;1.55;;;;;;;25.73;37.39;98891.06;4986740;28;20260;-80
2022/04/09 11:09:53;;;;;;;1.42;1.33;;;;;;;25.70;37.27;98899.25;4992490;28;20259;-76
2022/04/09 11:12:24;;;;;;;3.45;1.58;;;;;;;25.97;36.99;98902.72;4990889;28;20748;-77
2022/04/09 11:14:54;;;;;;;2.03;1.50;;;;;;;25.92;36.05;98904.84;4990565;28;20660;-78
2022/04/09 11:17:32;;;;;;;3.80;2.35;;;;;;;25.79;36.86;98900.44;5028464;28;20195;-75
2022/04/09 11:20:05;;;;;;;3.80;1.50;;;;;;;25.92;37.17;98904.84;5072746;28;20210;-79
2022/04/09 11:22:33;;;;;;;2.33;1.85;;;;;;;25.79;37.23;98869.41;5073267;28;20755;-79
2022/04/09 11:25:00;;;;;;;1.50;1.40;;;;;;;25.59;36.60;98896.44;5073374;28;20298;-80
2022/04/09 11:27:29;;;;;;;2.30;1.35;;;;;;;26.03;37.05;98891.72;5073664;28;20290;-79
2022/04/09 11:29:56;;;;;;;4.22;1.30;;;;;;;26.18;36.78;98900.47;5055238;28;20206;-80
2022/04/09 11:32:24;;;;;;;3.00;1.50;;;;;;;26.25;36.62;98892.94;5072916;28;20694;-79
2022/04/09 11:34:53;;;;;;;3.70;1.25;;;;;;;26.29;36.62;98892.59;5073583;28;20199;-84